Cottonwood, Idaho
Current Conditions -  °F | °C
As of 11:35 PM on Saturday 22 Nov 2014 (Local Time) from KGIC Reporting Station
Overcast Overcast  
Wind Chill: 26°   Ceiling: 4900
Heat Index: 35°   Visibility: 10mi
Dew Point: 28°   Wind: 12mph
Humidity: 76%   Direction: 220°SW
Pressure: 30.07"   Gusts: 18mph
Location:  46.05°N, 116.35°W
Report Text: KGIC 230735Z AUTO 22010G16KT 10SM SCT032 SCT041 OVC049 02/M02 A3007 RMK AO1 T00151023
Loading
Personal Weather Stations






























Interactive Weather Map New forecast layout! Learn more

10-Day Weather Forecast

Advertisements
Track Severe Weather on mobile